sensor_id;sensor_type;location;lat;lon;timestamp;P1;durP1;ratioP1;P2;durP2;ratioP2
11642;SDS011;5877;50.930;6.918;2023-07-31T04:32:45;4.90;;;3.00;;
11642;SDS011;5877;50.930;6.918;2023-07-31T04:37:37;4.43;;;2.73;;
11642;SDS011;5877;50.930;6.918;2023-07-31T04:42:30;5.27;;;3.20;;
11642;SDS011;5877;50.930;6.918;2023-07-31T04:47:23;4.20;;;2.57;;
11642;SDS011;5877;50.930;6.918;2023-07-31T04:52:15;6.17;;;3.20;;
11642;SDS011;5877;50.930;6.918;2023-07-31T04:57:08;4.87;;;2.80;;
11642;SDS011;5877;50.930;6.918;2023-07-31T05:02:01;6.00;;;3.13;;
11642;SDS011;5877;50.930;6.918;2023-07-31T05:06:53;3.60;;;2.37;;
11642;SDS011;5877;50.930;6.918;2023-07-31T05:11:45;3.93;;;2.73;;
11642;SDS011;5877;50.930;6.918;2023-07-31T05:16:37;4.57;;;2.80;;
11642;SDS011;5877;50.930;6.918;2023-07-31T05:21:32;4.40;;;2.40;;
11642;SDS011;5877;50.930;6.918;2023-07-31T05:26:25;4.13;;;2.20;;
11642;SDS011;5877;50.930;6.918;2023-07-31T05:31:17;3.93;;;2.50;;
11642;SDS011;5877;50.930;6.918;2023-07-31T05:36:09;5.30;;;2.20;;
11642;SDS011;5877;50.930;6.918;2023-07-31T05:41:01;3.27;;;2.27;;
11642;SDS011;5877;50.930;6.918;2023-07-31T05:45:55;5.87;;;2.90;;
11642;SDS011;5877;50.930;6.918;2023-07-31T05:50:47;7.93;;;2.20;;
11642;SDS011;5877;50.930;6.918;2023-07-31T05:55:39;6.60;;;2.57;;
11642;SDS011;5877;50.930;6.918;2023-07-31T06:00:32;6.43;;;3.20;;
11642;SDS011;5877;50.930;6.918;2023-07-31T06:05:25;6.93;;;2.80;;
11642;SDS011;5877;50.930;6.918;2023-07-31T06:10:17;5.60;;;3.20;;
11642;SDS011;5877;50.930;6.918;2023-07-31T06:15:11;4.80;;;2.90;;
11642;SDS011;5877;50.930;6.918;2023-07-31T06:20:05;4.47;;;2.63;;
11642;SDS011;5877;50.930;6.918;2023-07-31T06:24:58;5.20;;;2.53;;
11642;SDS011;5877;50.930;6.918;2023-07-31T06:29:50;3.43;;;2.67;;
11642;SDS011;5877;50.930;6.918;2023-07-31T06:34:42;6.43;;;2.67;;
11642;SDS011;5877;50.930;6.918;2023-07-31T06:39:35;6.23;;;2.83;;
11642;SDS011;5877;50.930;6.918;2023-07-31T06:44:31;3.27;;;2.20;;
11642;SDS011;5877;50.930;6.918;2023-07-31T06:49:23;4.80;;;2.70;;
11642;SDS011;5877;50.930;6.918;2023-07-31T06:54:16;5.60;;;2.70;;
11642;SDS011;5877;50.930;6.918;2023-07-31T06:59:09;4.83;;;2.67;;
11642;SDS011;5877;50.930;6.918;2023-07-31T07:04:01;7.47;;;2.53;;
11642;SDS011;5877;50.930;6.918;2023-07-31T07:08:53;5.20;;;2.60;;
11642;SDS011;5877;50.930;6.918;2023-07-31T07:13:45;3.90;;;2.60;;
11642;SDS011;5877;50.930;6.918;2023-07-31T07:18:38;4.97;;;2.30;;
11642;SDS011;5877;50.930;6.918;2023-07-31T07:23:45;7.83;;;2.63;;
11642;SDS011;5877;50.930;6.918;2023-07-31T07:28:37;3.57;;;2.53;;
11642;SDS011;5877;50.930;6.918;2023-07-31T07:33:31;4.67;;;2.43;;
11642;SDS011;5877;50.930;6.918;2023-07-31T07:38:23;4.33;;;2.20;;
11642;SDS011;5877;50.930;6.918;2023-07-31T07:43:16;3.63;;;2.20;;
11642;SDS011;5877;50.930;6.918;2023-07-31T07:48:12;6.53;;;3.50;;
11642;SDS011;5877;50.930;6.918;2023-07-31T07:53:04;5.70;;;2.53;;
11642;SDS011;5877;50.930;6.918;2023-07-31T07:57:56;6.23;;;2.10;;
11642;SDS011;5877;50.930;6.918;2023-07-31T08:02:48;3.63;;;2.30;;
11642;SDS011;5877;50.930;6.918;2023-07-31T08:07:41;5.60;;;2.30;;
11642;SDS011;5877;50.930;6.918;2023-07-31T08:12:32;3.40;;;1.90;;
11642;SDS011;5877;50.930;6.918;2023-07-31T08:17:24;3.13;;;1.90;;
11642;SDS011;5877;50.930;6.918;2023-07-31T08:22:16;3.40;;;1.67;;
11642;SDS011;5877;50.930;6.918;2023-07-31T08:27:09;5.80;;;1.80;;
11642;SDS011;5877;50.930;6.918;2023-07-31T08:32:01;2.77;;;1.93;;
11642;SDS011;5877;50.930;6.918;2023-07-31T08:36:55;3.93;;;2.23;;
11642;SDS011;5877;50.930;6.918;2023-07-31T08:41:47;3.40;;;1.90;;
11642;SDS011;5877;50.930;6.918;2023-07-31T08:46:39;3.20;;;2.13;;
11642;SDS011;5877;50.930;6.918;2023-07-31T08:51:33;7.00;;;2.03;;
11642;SDS011;5877;50.930;6.918;2023-07-31T08:56:28;5.87;;;2.70;;
11642;SDS011;5877;50.930;6.918;2023-07-31T09:01:20;3.53;;;2.27;;
11642;SDS011;5877;50.930;6.918;2023-07-31T09:06:13;4.70;;;2.10;;
11642;SDS011;5877;50.930;6.918;2023-07-31T09:11:09;4.80;;;2.10;;
11642;SDS011;5877;50.930;6.918;2023-07-31T09:16:03;2.43;;;1.60;;
11642;SDS011;5877;50.930;6.918;2023-07-31T09:21:02;5.30;;;2.03;;
11642;SDS011;5877;50.930;6.918;2023-07-31T09:25:55;4.93;;;2.00;;
11642;SDS011;5877;50.930;6.918;2023-07-31T09:30:48;4.27;;;1.73;;
11642;SDS011;5877;50.930;6.918;2023-07-31T09:35:43;3.20;;;1.60;;
11642;SDS011;5877;50.930;6.918;2023-07-31T09:40:36;3.17;;;1.47;;
11642;SDS011;5877;50.930;6.918;2023-07-31T09:45:34;4.20;;;1.60;;
11642;SDS011;5877;50.930;6.918;2023-07-31T09:50:32;4.00;;;1.87;;
11642;SDS011;5877;50.930;6.918;2023-07-31T09:55:25;3.63;;;1.70;;
11642;SDS011;5877;50.930;6.918;2023-07-31T10:00:18;2.47;;;1.60;;
11642;SDS011;5877;50.930;6.918;2023-07-31T10:05:12;1.87;;;1.47;;
11642;SDS011;5877;50.930;6.918;2023-07-31T10:10:07;4.33;;;1.40;;
11642;SDS011;5877;50.930;6.918;2023-07-31T10:15:04;2.20;;;1.80;;
11642;SDS011;5877;50.930;6.918;2023-07-31T10:19:59;4.67;;;2.13;;
11642;SDS011;5877;50.930;6.918;2023-07-31T10:24:55;3.77;;;1.53;;
11642;SDS011;5877;50.930;6.918;2023-07-31T10:29:54;3.10;;;2.00;;
11642;SDS011;5877;50.930;6.918;2023-07-31T10:34:49;1.97;;;1.60;;
11642;SDS011;5877;50.930;6.918;2023-07-31T10:39:45;2.47;;;1.60;;
11642;SDS011;5877;50.930;6.918;2023-07-31T10:44:59;3.93;;;1.77;;
11642;SDS011;5877;50.930;6.918;2023-07-31T10:50:10;3.10;;;1.37;;
11642;SDS011;5877;50.930;6.918;2023-07-31T10:55:16;2.03;;;1.40;;
11642;SDS011;5877;50.930;6.918;2023-07-31T11:00:24;3.50;;;1.50;;
11642;SDS011;5877;50.930;6.918;2023-07-31T11:05:20;2.60;;;1.00;;
11642;SDS011;5877;50.930;6.918;2023-07-31T11:10:16;2.23;;;1.10;;
11642;SDS011;5877;50.930;6.918;2023-07-31T11:15:10;3.77;;;1.20;;
11642;SDS011;5877;50.930;6.918;2023-07-31T11:20:03;2.43;;;1.07;;
11642;SDS011;5877;50.930;6.918;2023-07-31T11:24:58;1.07;;;0.80;;
11642;SDS011;5877;50.930;6.918;2023-07-31T11:29:50;1.30;;;0.90;;
11642;SDS011;5877;50.930;6.918;2023-07-31T11:34:51;2.20;;;0.70;;
11642;SDS011;5877;50.930;6.918;2023-07-31T11:39:57;1.27;;;0.57;;
11642;SDS011;5877;50.930;6.918;2023-07-31T11:44:53;0.90;;;0.70;;
11642;SDS011;5877;50.930;6.918;2023-07-31T11:49:45;2.03;;;1.83;;
11642;SDS011;5877;50.930;6.918;2023-07-31T11:54:37;0.63;;;0.60;;
11642;SDS011;5877;50.930;6.918;2023-07-31T11:59:32;0.73;;;0.53;;
11642;SDS011;5877;50.930;6.918;2023-07-31T12:04:25;0.73;;;0.50;;
11642;SDS011;5877;50.930;6.918;2023-07-31T12:09:18;1.57;;;0.43;;
11642;SDS011;5877;50.930;6.918;2023-07-31T12:14:32;1.23;;;0.77;;
11642;SDS011;5877;50.930;6.918;2023-07-31T12:19:26;0.97;;;0.50;;
11642;SDS011;5877;50.930;6.918;2023-07-31T12:24:22;1.77;;;0.70;;
11642;SDS011;5877;50.930;6.918;2023-07-31T12:29:14;1.00;;;0.60;;
11642;SDS011;5877;50.930;6.918;2023-07-31T12:34:17;0.80;;;0.60;;
11642;SDS011;5877;50.930;6.918;2023-07-31T12:39:11;0.90;;;0.63;;
11642;SDS011;5877;50.930;6.918;2023-07-31T12:44:03;1.23;;;0.97;;
11642;SDS011;5877;50.930;6.918;2023-07-31T12:48:56;2.37;;;1.60;;
11642;SDS011;5877;50.930;6.918;2023-07-31T12:53:48;3.23;;;1.47;;
11642;SDS011;5877;50.930;6.918;2023-07-31T12:58:41;2.73;;;1.00;;
11642;SDS011;5877;50.930;6.918;2023-07-31T13:03:35;1.50;;;1.07;;
11642;SDS011;5877;50.930;6.918;2023-07-31T13:08:28;1.73;;;1.17;;
11642;SDS011;5877;50.930;6.918;2023-07-31T13:13:20;1.67;;;1.30;;
11642;SDS011;5877;50.930;6.918;2023-07-31T13:18:14;2.27;;;1.50;;
11642;SDS011;5877;50.930;6.918;2023-07-31T13:23:07;5.07;;;1.30;;
11642;SDS011;5877;50.930;6.918;2023-07-31T13:28:00;2.00;;;1.50;;
11642;SDS011;5877;50.930;6.918;2023-07-31T13:32:54;2.30;;;1.40;;
11642;SDS011;5877;50.930;6.918;2023-07-31T13:37:50;4.27;;;1.63;;
11642;SDS011;5877;50.930;6.918;2023-07-31T13:42:44;1.43;;;1.20;;
11642;SDS011;5877;50.930;6.918;2023-07-31T13:47:41;2.30;;;1.50;;
11642;SDS011;5877;50.930;6.918;2023-07-31T13:53:09;1.90;;;1.33;;
11642;SDS011;5877;50.930;6.918;2023-07-31T13:58:01;3.13;;;1.50;;
11642;SDS011;5877;50.930;6.918;2023-07-31T14:02:54;3.13;;;1.40;;
11642;SDS011;5877;50.930;6.918;2023-07-31T14:07:51;1.60;;;1.50;;
11642;SDS011;5877;50.930;6.918;2023-07-31T14:12:46;2.60;;;2.07;;
11642;SDS011;5877;50.930;6.918;2023-07-31T14:17:39;3.07;;;1.57;;
11642;SDS011;5877;50.930;6.918;2023-07-31T14:22:33;2.20;;;1.43;;
11642;SDS011;5877;50.930;6.918;2023-07-31T14:27:25;1.73;;;1.50;;
11642;SDS011;5877;50.930;6.918;2023-07-31T14:32:19;2.37;;;1.77;;
11642;SDS011;5877;50.930;6.918;2023-07-31T14:37:13;2.27;;;1.70;;
11642;SDS011;5877;50.930;6.918;2023-07-31T14:42:06;4.03;;;2.33;;
11642;SDS011;5877;50.930;6.918;2023-07-31T14:46:59;2.20;;;1.87;;
11642;SDS011;5877;50.930;6.918;2023-07-31T14:51:51;2.93;;;2.00;;
11642;SDS011;5877;50.930;6.918;2023-07-31T14:56:45;1.87;;;1.67;;
11642;SDS011;5877;50.930;6.918;2023-07-31T15:01:38;3.60;;;1.90;;
11642;SDS011;5877;50.930;6.918;2023-07-31T15:06:32;2.60;;;1.90;;
11642;SDS011;5877;50.930;6.918;2023-07-31T15:11:36;3.60;;;1.90;;
11642;SDS011;5877;50.930;6.918;2023-07-31T15:16:46;4.07;;;2.47;;
11642;SDS011;5877;50.930;6.918;2023-07-31T15:21:40;3.03;;;2.30;;
11642;SDS011;5877;50.930;6.918;2023-07-31T15:26:34;4.50;;;2.20;;
11642;SDS011;5877;50.930;6.918;2023-07-31T15:31:28;3.00;;;2.30;;
11642;SDS011;5877;50.930;6.918;2023-07-31T15:36:20;2.90;;;2.20;;
11642;SDS011;5877;50.930;6.918;2023-07-31T15:41:13;3.40;;;2.40;;
11642;SDS011;5877;50.930;6.918;2023-07-31T15:46:06;3.93;;;2.40;;
11642;SDS011;5877;50.930;6.918;2023-07-31T15:51:00;4.03;;;2.57;;
11642;SDS011;5877;50.930;6.918;2023-07-31T15:55:55;3.47;;;2.13;;
11642;SDS011;5877;50.930;6.918;2023-07-31T16:00:47;4.73;;;2.70;;
11642;SDS011;5877;50.930;6.918;2023-07-31T16:05:39;2.70;;;2.23;;
11642;SDS011;5877;50.930;6.918;2023-07-31T16:10:32;3.30;;;3.00;;
11642;SDS011;5877;50.930;6.918;2023-07-31T16:15:24;4.90;;;2.20;;
11642;SDS011;5877;50.930;6.918;2023-07-31T16:20:20;5.10;;;3.10;;
11642;SDS011;5877;50.930;6.918;2023-07-31T16:25:12;3.63;;;2.27;;
11642;SDS011;5877;50.930;6.918;2023-07-31T16:30:05;3.00;;;2.40;;
11642;SDS011;5877;50.930;6.918;2023-07-31T16:34:57;2.93;;;1.70;;
11642;SDS011;5877;50.930;6.918;2023-07-31T16:39:50;2.40;;;1.70;;
11642;SDS011;5877;50.930;6.918;2023-07-31T16:44:53;2.50;;;2.00;;
11642;SDS011;5877;50.930;6.918;2023-07-31T16:49:47;3.00;;;2.00;;
11642;SDS011;5877;50.930;6.918;2023-07-31T16:54:42;3.67;;;1.77;;
11642;SDS011;5877;50.930;6.918;2023-07-31T16:59:36;3.03;;;2.10;;
11642;SDS011;5877;50.930;6.918;2023-07-31T17:04:34;2.73;;;1.83;;
11642;SDS011;5877;50.930;6.918;2023-07-31T17:09:29;5.03;;;2.20;;
11642;SDS011;5877;50.930;6.918;2023-07-31T17:14:21;2.93;;;2.00;;
11642;SDS011;5877;50.930;6.918;2023-07-31T17:19:14;2.23;;;2.03;;
11642;SDS011;5877;50.930;6.918;2023-07-31T17:24:09;4.07;;;1.80;;
11642;SDS011;5877;50.930;6.918;2023-07-31T17:29:01;2.90;;;2.43;;
11642;SDS011;5877;50.930;6.918;2023-07-31T17:33:53;3.07;;;2.20;;
11642;SDS011;5877;50.930;6.918;2023-07-31T17:38:47;2.20;;;1.80;;
11642;SDS011;5877;50.930;6.918;2023-07-31T17:43:41;3.40;;;1.67;;
11642;SDS011;5877;50.930;6.918;2023-07-31T17:48:33;3.80;;;2.13;;
11642;SDS011;5877;50.930;6.918;2023-07-31T17:53:25;2.97;;;1.80;;
11642;SDS011;5877;50.930;6.918;2023-07-31T17:58:18;2.93;;;1.90;;
11642;SDS011;5877;50.930;6.918;2023-07-31T18:03:11;3.80;;;1.83;;
11642;SDS011;5877;50.930;6.918;2023-07-31T18:08:06;4.00;;;2.07;;
11642;SDS011;5877;50.930;6.918;2023-07-31T18:12:59;2.00;;;1.80;;
11642;SDS011;5877;50.930;6.918;2023-07-31T18:17:52;3.67;;;1.73;;
11642;SDS011;5877;50.930;6.918;2023-07-31T18:22:45;1.27;;;1.13;;
11642;SDS011;5877;50.930;6.918;2023-07-31T18:27:37;2.03;;;1.50;;
11642;SDS011;5877;50.930;6.918;2023-07-31T18:32:29;1.50;;;1.20;;
11642;SDS011;5877;50.930;6.918;2023-07-31T18:37:22;1.80;;;1.00;;
11642;SDS011;5877;50.930;6.918;2023-07-31T18:42:16;1.83;;;1.30;;
11642;SDS011;5877;50.930;6.918;2023-07-31T18:47:09;1.33;;;1.10;;
11642;SDS011;5877;50.930;6.918;2023-07-31T18:52:01;1.20;;;1.10;;
11642;SDS011;5877;50.930;6.918;2023-07-31T18:56:53;1.60;;;1.03;;
11642;SDS011;5877;50.930;6.918;2023-07-31T19:01:45;2.10;;;0.90;;
11642;SDS011;5877;50.930;6.918;2023-07-31T19:06:41;2.43;;;0.93;;
11642;SDS011;5877;50.930;6.918;2023-07-31T19:11:35;1.40;;;0.90;;
11642;SDS011;5877;50.930;6.918;2023-07-31T19:16:28;1.30;;;0.90;;
11642;SDS011;5877;50.930;6.918;2023-07-31T19:21:21;1.57;;;0.90;;
11642;SDS011;5877;50.930;6.918;2023-07-31T19:26:13;1.57;;;0.80;;
11642;SDS011;5877;50.930;6.918;2023-07-31T19:31:05;1.20;;;0.90;;
11642;SDS011;5877;50.930;6.918;2023-07-31T19:35:58;0.87;;;0.80;;
11642;SDS011;5877;50.930;6.918;2023-07-31T19:40:51;2.23;;;0.60;;
11642;SDS011;5877;50.930;6.918;2023-07-31T19:45:45;1.60;;;0.70;;
11642;SDS011;5877;50.930;6.918;2023-07-31T19:50:37;1.57;;;0.70;;
11642;SDS011;5877;50.930;6.918;2023-07-31T19:55:29;1.00;;;0.60;;
11642;SDS011;5877;50.930;6.918;2023-07-31T20:00:23;0.70;;;0.70;;
11642;SDS011;5877;50.930;6.918;2023-07-31T20:05:15;0.80;;;0.60;;
11642;SDS011;5877;50.930;6.918;2023-07-31T20:10:07;0.90;;;0.60;;
11642;SDS011;5877;50.930;6.918;2023-07-31T20:15:03;1.13;;;0.70;;
11642;SDS011;5877;50.930;6.918;2023-07-31T20:19:58;0.90;;;0.70;;
11642;SDS011;5877;50.930;6.918;2023-07-31T20:24:50;1.10;;;0.60;;
11642;SDS011;5877;50.930;6.918;2023-07-31T20:29:42;0.83;;;0.60;;
11642;SDS011;5877;50.930;6.918;2023-07-31T20:34:34;2.40;;;0.60;;
11642;SDS011;5877;50.930;6.918;2023-07-31T20:39:26;2.13;;;0.70;;
11642;SDS011;5877;50.930;6.918;2023-07-31T20:44:20;1.63;;;0.90;;
11642;SDS011;5877;50.930;6.918;2023-07-31T20:49:13;1.03;;;0.80;;
11642;SDS011;5877;50.930;6.918;2023-07-31T20:54:05;1.07;;;0.60;;
11642;SDS011;5877;50.930;6.918;2023-07-31T20:58:58;0.60;;;0.57;;
11642;SDS011;5877;50.930;6.918;2023-07-31T21:03:50;2.07;;;0.60;;
11642;SDS011;5877;50.930;6.918;2023-07-31T21:08:43;1.00;;;0.70;;
11642;SDS011;5877;50.930;6.918;2023-07-31T21:13:36;3.33;;;0.43;;
11642;SDS011;5877;50.930;6.918;2023-07-31T21:18:29;0.67;;;0.40;;
11642;SDS011;5877;50.930;6.918;2023-07-31T21:23:21;0.80;;;0.70;;
11642;SDS011;5877;50.930;6.918;2023-07-31T21:28:16;0.77;;;0.70;;
11642;SDS011;5877;50.930;6.918;2023-07-31T21:33:08;1.63;;;0.70;;
11642;SDS011;5877;50.930;6.918;2023-07-31T21:38:01;4.33;;;0.70;;
11642;SDS011;5877;50.930;6.918;2023-07-31T21:42:54;2.70;;;0.77;;
11642;SDS011;5877;50.930;6.918;2023-07-31T21:47:48;0.90;;;0.60;;
11642;SDS011;5877;50.930;6.918;2023-07-31T21:52:41;1.70;;;0.63;;
11642;SDS011;5877;50.930;6.918;2023-07-31T21:57:38;1.13;;;0.63;;
11642;SDS011;5877;50.930;6.918;2023-07-31T22:02:34;0.97;;;0.60;;
11642;SDS011;5877;50.930;6.918;2023-07-31T22:07:38;1.27;;;0.80;;
11642;SDS011;5877;50.930;6.918;2023-07-31T22:12:40;0.97;;;0.87;;
11642;SDS011;5877;50.930;6.918;2023-07-31T22:17:33;0.93;;;0.70;;
11642;SDS011;5877;50.930;6.918;2023-07-31T22:22:45;1.63;;;0.83;;
11642;SDS011;5877;50.930;6.918;2023-07-31T22:27:41;1.50;;;0.80;;
11642;SDS011;5877;50.930;6.918;2023-07-31T22:32:39;2.20;;;0.80;;
11642;SDS011;5877;50.930;6.918;2023-07-31T22:37:41;1.27;;;0.90;;
11642;SDS011;5877;50.930;6.918;2023-07-31T22:42:48;1.70;;;0.70;;
11642;SDS011;5877;50.930;6.918;2023-07-31T22:47:49;1.60;;;0.80;;
11642;SDS011;5877;50.930;6.918;2023-07-31T22:52:41;1.33;;;0.60;;
11642;SDS011;5877;50.930;6.918;2023-07-31T22:57:34;2.67;;;0.80;;
11642;SDS011;5877;50.930;6.918;2023-07-31T23:02:27;1.67;;;0.73;;
11642;SDS011;5877;50.930;6.918;2023-07-31T23:07:20;1.47;;;0.97;;
11642;SDS011;5877;50.930;6.918;2023-07-31T23:12:12;1.20;;;0.70;;
11642;SDS011;5877;50.930;6.918;2023-07-31T23:17:04;0.87;;;0.63;;
11642;SDS011;5877;50.930;6.918;2023-07-31T23:21:56;1.83;;;0.87;;
11642;SDS011;5877;50.930;6.918;2023-07-31T23:26:50;1.03;;;0.90;;
11642;SDS011;5877;50.930;6.918;2023-07-31T23:31:42;1.47;;;0.80;;
11642;SDS011;5877;50.930;6.918;2023-07-31T23:36:35;1.67;;;0.63;;
11642;SDS011;5877;50.930;6.918;2023-07-31T23:41:29;1.80;;;0.70;;
11642;SDS011;5877;50.930;6.918;2023-07-31T23:46:24;2.13;;;0.77;;
11642;SDS011;5877;50.930;6.918;2023-07-31T23:51:16;1.53;;;0.67;;
11642;SDS011;5877;50.930;6.918;2023-07-31T23:56:09;2.37;;;0.43;;
